sensor_id;sensor_type;location;lat;lon;timestamp;temperature;humidity
19220;DHT22;9744;49.364;7.484;2023-12-20T00:01:08;2.40;99.90
19220;DHT22;9744;49.364;7.484;2023-12-20T00:03:36;2.20;99.90
19220;DHT22;9744;49.364;7.484;2023-12-20T00:06:07;2.20;99.90
19220;DHT22;9744;49.364;7.484;2023-12-20T00:08:37;2.60;99.90
19220;DHT22;9744;49.364;7.484;2023-12-20T00:11:05;2.20;99.90
19220;DHT22;9744;49.364;7.484;2023-12-20T00:13:33;2.50;99.90
19220;DHT22;9744;49.364;7.484;2023-12-20T00:16:00;2.20;99.90
19220;DHT22;9744;49.364;7.484;2023-12-20T00:18:28;1.60;99.90
19220;DHT22;9744;49.364;7.484;2023-12-20T00:20:56;1.20;99.90
19220;DHT22;9744;49.364;7.484;2023-12-20T00:23:25;2.70;99.90
19220;DHT22;9744;49.364;7.484;2023-12-20T00:25:53;2.20;99.90
19220;DHT22;9744;49.364;7.484;2023-12-20T00:28:22;2.40;99.90
19220;DHT22;9744;49.364;7.484;2023-12-20T00:30:50;1.00;99.90
19220;DHT22;9744;49.364;7.484;2023-12-20T00:33:18;1.20;99.90
19220;DHT22;9744;49.364;7.484;2023-12-20T00:35:45;2.20;99.90
19220;DHT22;9744;49.364;7.484;2023-12-20T00:38:13;2.20;99.90
19220;DHT22;9744;49.364;7.484;2023-12-20T00:40:42;2.90;99.90
19220;DHT22;9744;49.364;7.484;2023-12-20T00:43:10;2.20;99.90
19220;DHT22;9744;49.364;7.484;2023-12-20T00:45:37;2.20;99.90
19220;DHT22;9744;49.364;7.484;2023-12-20T00:48:06;2.70;99.90
19220;DHT22;9744;49.364;7.484;2023-12-20T00:50:34;2.00;99.90
19220;DHT22;9744;49.364;7.484;2023-12-20T00:53:03;2.50;99.90
19220;DHT22;9744;49.364;7.484;2023-12-20T00:55:32;2.30;99.90
19220;DHT22;9744;49.364;7.484;2023-12-20T00:58:01;2.90;99.90
19220;DHT22;9744;49.364;7.484;2023-12-20T01:00:29;3.10;99.90
19220;DHT22;9744;49.364;7.484;2023-12-20T01:02:56;3.30;99.90
19220;DHT22;9744;49.364;7.484;2023-12-20T01:05:24;2.20;99.90
19220;DHT22;9744;49.364;7.484;2023-12-20T01:07:52;2.30;99.90
19220;DHT22;9744;49.364;7.484;2023-12-20T01:10:20;3.10;99.90
19220;DHT22;9744;49.364;7.484;2023-12-20T01:12:48;1.70;99.90
19220;DHT22;9744;49.364;7.484;2023-12-20T01:15:18;2.30;99.90
19220;DHT22;9744;49.364;7.484;2023-12-20T01:17:46;2.30;99.90
19220;DHT22;9744;49.364;7.484;2023-12-20T01:20:14;2.30;99.90
19220;DHT22;9744;49.364;7.484;2023-12-20T01:22:41;2.30;99.90
19220;DHT22;9744;49.364;7.484;2023-12-20T01:25:13;2.30;99.90
19220;DHT22;9744;49.364;7.484;2023-12-20T01:27:41;2.30;99.90
19220;DHT22;9744;49.364;7.484;2023-12-20T01:30:09;2.70;99.90
19220;DHT22;9744;49.364;7.484;2023-12-20T01:32:38;2.30;99.90
19220;DHT22;9744;49.364;7.484;2023-12-20T01:35:06;2.20;99.90
19220;DHT22;9744;49.364;7.484;2023-12-20T01:37:33;2.40;99.90
19220;DHT22;9744;49.364;7.484;2023-12-20T01:40:02;2.40;99.90
19220;DHT22;9744;49.364;7.484;2023-12-20T01:42:30;2.30;99.90
19220;DHT22;9744;49.364;7.484;2023-12-20T01:44:58;2.40;99.90
19220;DHT22;9744;49.364;7.484;2023-12-20T01:47:25;3.60;99.90
19220;DHT22;9744;49.364;7.484;2023-12-20T01:49:54;3.30;99.90
19220;DHT22;9744;49.364;7.484;2023-12-20T01:52:24;2.40;99.90
19220;DHT22;9744;49.364;7.484;2023-12-20T01:54:52;2.90;99.90
19220;DHT22;9744;49.364;7.484;2023-12-20T01:57:23;2.40;99.90
19220;DHT22;9744;49.364;7.484;2023-12-20T01:59:50;2.70;99.90
19220;DHT22;9744;49.364;7.484;2023-12-20T02:02:20;2.40;99.90
19220;DHT22;9744;49.364;7.484;2023-12-20T02:04:48;3.50;99.90
19220;DHT22;9744;49.364;7.484;2023-12-20T02:07:18;2.50;99.90
19220;DHT22;9744;49.364;7.484;2023-12-20T02:09:47;2.40;99.90
19220;DHT22;9744;49.364;7.484;2023-12-20T02:12:16;2.40;99.90
19220;DHT22;9744;49.364;7.484;2023-12-20T02:14:46;2.80;99.90
19220;DHT22;9744;49.364;7.484;2023-12-20T02:17:13;1.50;99.90
19220;DHT22;9744;49.364;7.484;2023-12-20T02:19:41;2.50;99.90
19220;DHT22;9744;49.364;7.484;2023-12-20T02:22:11;2.50;99.90
19220;DHT22;9744;49.364;7.484;2023-12-20T02:24:41;2.70;99.90
19220;DHT22;9744;49.364;7.484;2023-12-20T02:27:09;1.70;99.90
19220;DHT22;9744;49.364;7.484;2023-12-20T02:29:37;2.50;99.90
19220;DHT22;9744;49.364;7.484;2023-12-20T02:32:05;3.30;99.90
19220;DHT22;9744;49.364;7.484;2023-12-20T02:34:33;2.50;99.90
19220;DHT22;9744;49.364;7.484;2023-12-20T02:37:00;2.50;99.90
19220;DHT22;9744;49.364;7.484;2023-12-20T02:39:30;2.70;99.90
19220;DHT22;9744;49.364;7.484;2023-12-20T02:41:58;3.00;99.90
19220;DHT22;9744;49.364;7.484;2023-12-20T02:44:26;2.80;99.90
19220;DHT22;9744;49.364;7.484;2023-12-20T02:46:54;1.10;99.90
19220;DHT22;9744;49.364;7.484;2023-12-20T02:49:23;2.40;99.90
19220;DHT22;9744;49.364;7.484;2023-12-20T02:51:51;2.60;99.90
19220;DHT22;9744;49.364;7.484;2023-12-20T02:54:18;2.70;99.90
19220;DHT22;9744;49.364;7.484;2023-12-20T02:56:48;2.60;99.90
19220;DHT22;9744;49.364;7.484;2023-12-20T02:59:15;2.70;99.90
19220;DHT22;9744;49.364;7.484;2023-12-20T03:01:44;2.70;99.90
19220;DHT22;9744;49.364;7.484;2023-12-20T03:04:12;2.70;99.90
19220;DHT22;9744;49.364;7.484;2023-12-20T03:06:41;2.80;99.90
19220;DHT22;9744;49.364;7.484;2023-12-20T03:09:08;2.80;99.90
19220;DHT22;9744;49.364;7.484;2023-12-20T03:11:36;2.80;99.90
19220;DHT22;9744;49.364;7.484;2023-12-20T03:14:04;2.90;99.90
19220;DHT22;9744;49.364;7.484;2023-12-20T03:16:32;2.70;99.90
19220;DHT22;9744;49.364;7.484;2023-12-20T03:18:59;2.80;99.90
19220;DHT22;9744;49.364;7.484;2023-12-20T03:21:26;2.80;99.90
19220;DHT22;9744;49.364;7.484;2023-12-20T03:23:53;2.90;99.90
19220;DHT22;9744;49.364;7.484;2023-12-20T03:26:20;2.90;99.90
19220;DHT22;9744;49.364;7.484;2023-12-20T03:28:48;2.90;99.90
19220;DHT22;9744;49.364;7.484;2023-12-20T03:31:17;2.90;99.90
19220;DHT22;9744;49.364;7.484;2023-12-20T03:33:45;3.00;99.90
19220;DHT22;9744;49.364;7.484;2023-12-20T03:36:12;2.90;99.90
19220;DHT22;9744;49.364;7.484;2023-12-20T03:38:40;2.90;99.90
19220;DHT22;9744;49.364;7.484;2023-12-20T03:41:07;2.90;99.90
19220;DHT22;9744;49.364;7.484;2023-12-20T03:43:34;3.00;99.90
19220;DHT22;9744;49.364;7.484;2023-12-20T03:46:02;2.90;99.90
19220;DHT22;9744;49.364;7.484;2023-12-20T03:48:31;2.90;99.90
19220;DHT22;9744;49.364;7.484;2023-12-20T03:50:58;2.90;99.90
19220;DHT22;9744;49.364;7.484;2023-12-20T03:53:25;3.00;99.90
19220;DHT22;9744;49.364;7.484;2023-12-20T03:55:52;3.00;99.90
19220;DHT22;9744;49.364;7.484;2023-12-20T03:58:20;3.00;99.90
19220;DHT22;9744;49.364;7.484;2023-12-20T04:00:47;3.00;99.90
19220;DHT22;9744;49.364;7.484;2023-12-20T04:03:14;3.10;99.90
19220;DHT22;9744;49.364;7.484;2023-12-20T04:05:43;3.10;99.90
19220;DHT22;9744;49.364;7.484;2023-12-20T04:08:11;3.20;99.90
19220;DHT22;9744;49.364;7.484;2023-12-20T04:10:39;3.20;99.90
19220;DHT22;9744;49.364;7.484;2023-12-20T04:13:06;3.20;99.90
19220;DHT22;9744;49.364;7.484;2023-12-20T04:15:33;3.30;99.90
19220;DHT22;9744;49.364;7.484;2023-12-20T04:18:00;3.30;99.90
19220;DHT22;9744;49.364;7.484;2023-12-20T04:20:28;3.30;99.90
19220;DHT22;9744;49.364;7.484;2023-12-20T04:22:57;3.30;99.90
19220;DHT22;9744;49.364;7.484;2023-12-20T04:25:25;3.40;99.90
19220;DHT22;9744;49.364;7.484;2023-12-20T04:27:52;3.40;99.90
19220;DHT22;9744;49.364;7.484;2023-12-20T04:30:19;3.60;99.90
19220;DHT22;9744;49.364;7.484;2023-12-20T04:32:47;3.40;99.90
19220;DHT22;9744;49.364;7.484;2023-12-20T04:35:14;3.40;99.90
19220;DHT22;9744;49.364;7.484;2023-12-20T04:37:41;3.60;99.90
19220;DHT22;9744;49.364;7.484;2023-12-20T04:40:10;3.50;99.90
19220;DHT22;9744;49.364;7.484;2023-12-20T04:42:38;3.50;99.90
19220;DHT22;9744;49.364;7.484;2023-12-20T04:45:07;3.60;99.90
19220;DHT22;9744;49.364;7.484;2023-12-20T04:47:34;3.60;99.90
19220;DHT22;9744;49.364;7.484;2023-12-20T04:50:03;3.60;99.90
19220;DHT22;9744;49.364;7.484;2023-12-20T04:52:31;3.60;99.90
19220;DHT22;9744;49.364;7.484;2023-12-20T04:54:59;3.60;99.90
19220;DHT22;9744;49.364;7.484;2023-12-20T04:57:28;3.70;99.90
19220;DHT22;9744;49.364;7.484;2023-12-20T04:59:56;3.50;99.90
19220;DHT22;9744;49.364;7.484;2023-12-20T05:02:23;3.40;99.90
19220;DHT22;9744;49.364;7.484;2023-12-20T05:04:50;3.50;99.90
19220;DHT22;9744;49.364;7.484;2023-12-20T05:07:17;3.50;99.90
19220;DHT22;9744;49.364;7.484;2023-12-20T05:09:44;3.50;99.90
19220;DHT22;9744;49.364;7.484;2023-12-20T05:12:12;3.50;99.90
19220;DHT22;9744;49.364;7.484;2023-12-20T05:14:40;3.40;99.90
19220;DHT22;9744;49.364;7.484;2023-12-20T05:17:08;3.40;99.90
19220;DHT22;9744;49.364;7.484;2023-12-20T05:19:36;3.30;99.90
19220;DHT22;9744;49.364;7.484;2023-12-20T05:22:03;3.40;99.90
19220;DHT22;9744;49.364;7.484;2023-12-20T05:24:30;3.30;99.90
19220;DHT22;9744;49.364;7.484;2023-12-20T05:26:59;3.30;99.90
19220;DHT22;9744;49.364;7.484;2023-12-20T05:29:26;3.30;99.90
19220;DHT22;9744;49.364;7.484;2023-12-20T05:31:55;3.30;99.90
19220;DHT22;9744;49.364;7.484;2023-12-20T05:34:22;3.30;99.90
19220;DHT22;9744;49.364;7.484;2023-12-20T05:36:49;3.30;99.90
19220;DHT22;9744;49.364;7.484;2023-12-20T05:39:16;3.30;99.90
19220;DHT22;9744;49.364;7.484;2023-12-20T05:41:43;3.50;99.90
19220;DHT22;9744;49.364;7.484;2023-12-20T05:44:11;3.40;99.90
19220;DHT22;9744;49.364;7.484;2023-12-20T05:46:40;3.30;99.90
19220;DHT22;9744;49.364;7.484;2023-12-20T05:49:08;3.40;99.90
19220;DHT22;9744;49.364;7.484;2023-12-20T05:51:36;3.40;99.90
19220;DHT22;9744;49.364;7.484;2023-12-20T05:54:04;3.50;99.90
19220;DHT22;9744;49.364;7.484;2023-12-20T05:56:31;3.40;99.90
19220;DHT22;9744;49.364;7.484;2023-12-20T05:58:58;3.30;99.90
19220;DHT22;9744;49.364;7.484;2023-12-20T06:01:25;3.30;99.90
19220;DHT22;9744;49.364;7.484;2023-12-20T06:03:53;3.30;99.90
19220;DHT22;9744;49.364;7.484;2023-12-20T06:06:21;3.30;99.90
19220;DHT22;9744;49.364;7.484;2023-12-20T06:08:48;3.40;99.90
19220;DHT22;9744;49.364;7.484;2023-12-20T06:11:16;3.30;99.90
19220;DHT22;9744;49.364;7.484;2023-12-20T06:13:43;3.20;99.90
19220;DHT22;9744;49.364;7.484;2023-12-20T06:16:10;3.10;99.90
19220;DHT22;9744;49.364;7.484;2023-12-20T06:18:39;3.00;99.90
19220;DHT22;9744;49.364;7.484;2023-12-20T06:21:08;3.00;99.90
19220;DHT22;9744;49.364;7.484;2023-12-20T06:23:40;2.90;99.90
19220;DHT22;9744;49.364;7.484;2023-12-20T06:26:10;2.90;99.90
19220;DHT22;9744;49.364;7.484;2023-12-20T06:28:41;2.90;99.90
19220;DHT22;9744;49.364;7.484;2023-12-20T06:31:11;3.40;99.90
19220;DHT22;9744;49.364;7.484;2023-12-20T06:33:38;2.80;99.90
19220;DHT22;9744;49.364;7.484;2023-12-20T06:36:08;2.70;99.90
19220;DHT22;9744;49.364;7.484;2023-12-20T06:38:37;2.70;99.90
19220;DHT22;9744;49.364;7.484;2023-12-20T06:41:06;3.30;99.90
19220;DHT22;9744;49.364;7.484;2023-12-20T06:43:33;2.70;99.90
19220;DHT22;9744;49.364;7.484;2023-12-20T06:46:00;2.60;99.90
19220;DHT22;9744;49.364;7.484;2023-12-20T06:48:28;2.50;99.90
19220;DHT22;9744;49.364;7.484;2023-12-20T06:50:55;2.50;99.90
19220;DHT22;9744;49.364;7.484;2023-12-20T06:53:22;2.50;99.90
19220;DHT22;9744;49.364;7.484;2023-12-20T06:55:51;2.50;99.90
19220;DHT22;9744;49.364;7.484;2023-12-20T06:58:20;2.50;99.90
19220;DHT22;9744;49.364;7.484;2023-12-20T07:00:47;2.50;99.90
19220;DHT22;9744;49.364;7.484;2023-12-20T07:03:15;2.50;99.90
19220;DHT22;9744;49.364;7.484;2023-12-20T07:05:42;2.60;99.90
19220;DHT22;9744;49.364;7.484;2023-12-20T07:08:09;2.50;99.90
19220;DHT22;9744;49.364;7.484;2023-12-20T07:10:36;2.50;99.90
19220;DHT22;9744;49.364;7.484;2023-12-20T07:13:04;2.50;99.90
19220;DHT22;9744;49.364;7.484;2023-12-20T07:15:33;2.50;99.90
19220;DHT22;9744;49.364;7.484;2023-12-20T07:18:01;2.50;99.90
19220;DHT22;9744;49.364;7.484;2023-12-20T07:20:28;3.00;99.90
19220;DHT22;9744;49.364;7.484;2023-12-20T07:22:56;2.60;99.90
19220;DHT22;9744;49.364;7.484;2023-12-20T07:25:23;2.40;99.90
19220;DHT22;9744;49.364;7.484;2023-12-20T07:27:50;2.60;99.90
19220;DHT22;9744;49.364;7.484;2023-12-20T07:30:17;2.40;99.90
19220;DHT22;9744;49.364;7.484;2023-12-20T07:32:46;2.40;99.90
19220;DHT22;9744;49.364;7.484;2023-12-20T07:35:14;2.40;99.90
19220;DHT22;9744;49.364;7.484;2023-12-20T07:37:41;2.40;99.90
19220;DHT22;9744;49.364;7.484;2023-12-20T07:40:09;2.40;99.90
19220;DHT22;9744;49.364;7.484;2023-12-20T07:42:37;2.30;99.90
19220;DHT22;9744;49.364;7.484;2023-12-20T07:45:07;2.40;99.90
19220;DHT22;9744;49.364;7.484;2023-12-20T07:47:35;2.40;99.90
19220;DHT22;9744;49.364;7.484;2023-12-20T07:50:04;2.40;99.90
19220;DHT22;9744;49.364;7.484;2023-12-20T07:52:31;2.40;99.90
19220;DHT22;9744;49.364;7.484;2023-12-20T07:54:58;2.60;99.90
19220;DHT22;9744;49.364;7.484;2023-12-20T07:57:28;2.30;99.90
19220;DHT22;9744;49.364;7.484;2023-12-20T07:59:56;2.40;99.90
19220;DHT22;9744;49.364;7.484;2023-12-20T08:02:24;2.30;99.90
19220;DHT22;9744;49.364;7.484;2023-12-20T08:04:51;2.40;99.90
19220;DHT22;9744;49.364;7.484;2023-12-20T08:07:20;2.40;99.90
19220;DHT22;9744;49.364;7.484;2023-12-20T08:09:49;2.30;99.90
19220;DHT22;9744;49.364;7.484;2023-12-20T08:12:17;2.60;99.90
19220;DHT22;9744;49.364;7.484;2023-12-20T08:14:48;2.40;99.90
19220;DHT22;9744;49.364;7.484;2023-12-20T08:17:15;3.20;99.90
19220;DHT22;9744;49.364;7.484;2023-12-20T08:19:44;2.40;99.90
19220;DHT22;9744;49.364;7.484;2023-12-20T08:22:12;2.50;99.90
19220;DHT22;9744;49.364;7.484;2023-12-20T08:24:40;2.40;99.90
19220;DHT22;9744;49.364;7.484;2023-12-20T08:27:07;2.50;99.90
19220;DHT22;9744;49.364;7.484;2023-12-20T08:29:38;2.40;99.90
19220;DHT22;9744;49.364;7.484;2023-12-20T08:32:06;3.40;99.90
19220;DHT22;9744;49.364;7.484;2023-12-20T08:34:33;2.40;99.90
19220;DHT22;9744;49.364;7.484;2023-12-20T08:37:01;2.40;99.90
19220;DHT22;9744;49.364;7.484;2023-12-20T08:39:28;2.40;99.90
19220;DHT22;9744;49.364;7.484;2023-12-20T08:41:57;2.50;99.90
19220;DHT22;9744;49.364;7.484;2023-12-20T08:44:24;2.50;99.90
19220;DHT22;9744;49.364;7.484;2023-12-20T08:46:52;2.60;99.90
19220;DHT22;9744;49.364;7.484;2023-12-20T08:49:19;2.70;99.90
19220;DHT22;9744;49.364;7.484;2023-12-20T08:51:49;3.10;99.90
19220;DHT22;9744;49.364;7.484;2023-12-20T08:54:20;2.70;99.90
19220;DHT22;9744;49.364;7.484;2023-12-20T08:56:47;2.60;99.90
19220;DHT22;9744;49.364;7.484;2023-12-20T08:59:16;2.70;99.90
19220;DHT22;9744;49.364;7.484;2023-12-20T09:01:44;2.70;99.90
19220;DHT22;9744;49.364;7.484;2023-12-20T09:04:12;2.80;99.90
19220;DHT22;9744;49.364;7.484;2023-12-20T09:06:39;2.90;99.90
19220;DHT22;9744;49.364;7.484;2023-12-20T09:09:06;2.90;99.90
19220;DHT22;9744;49.364;7.484;2023-12-20T09:11:36;2.90;99.90
19220;DHT22;9744;49.364;7.484;2023-12-20T09:14:03;2.90;99.90
19220;DHT22;9744;49.364;7.484;2023-12-20T09:16:31;3.00;99.90
19220;DHT22;9744;49.364;7.484;2023-12-20T09:18:59;3.00;99.90
19220;DHT22;9744;49.364;7.484;2023-12-20T09:21:26;3.00;99.90
19220;DHT22;9744;49.364;7.484;2023-12-20T09:23:53;3.00;99.90
19220;DHT22;9744;49.364;7.484;2023-12-20T09:26:20;3.00;99.90
19220;DHT22;9744;49.364;7.484;2023-12-20T09:28:47;3.00;99.90
19220;DHT22;9744;49.364;7.484;2023-12-20T09:31:15;3.00;99.90
19220;DHT22;9744;49.364;7.484;2023-12-20T09:33:43;3.10;99.90
19220;DHT22;9744;49.364;7.484;2023-12-20T09:36:11;3.10;99.90
19220;DHT22;9744;49.364;7.484;2023-12-20T09:38:39;3.30;99.90
19220;DHT22;9744;49.364;7.484;2023-12-20T09:41:08;3.00;99.90
19220;DHT22;9744;49.364;7.484;2023-12-20T09:43:37;2.90;99.90
19220;DHT22;9744;49.364;7.484;2023-12-20T09:46:06;3.00;99.90
19220;DHT22;9744;49.364;7.484;2023-12-20T09:48:34;2.90;99.90
19220;DHT22;9744;49.364;7.484;2023-12-20T09:51:06;3.00;99.90
19220;DHT22;9744;49.364;7.484;2023-12-20T09:53:34;3.00;99.90
19220;DHT22;9744;49.364;7.484;2023-12-20T09:56:03;3.00;99.90
19220;DHT22;9744;49.364;7.484;2023-12-20T09:58:30;3.00;99.90
19220;DHT22;9744;49.364;7.484;2023-12-20T10:01:00;3.60;99.90
19220;DHT22;9744;49.364;7.484;2023-12-20T10:03:27;3.00;99.90
19220;DHT22;9744;49.364;7.484;2023-12-20T10:05:57;3.00;99.90
19220;DHT22;9744;49.364;7.484;2023-12-20T10:08:27;3.00;99.90
19220;DHT22;9744;49.364;7.484;2023-12-20T10:10:56;3.00;99.90
19220;DHT22;9744;49.364;7.484;2023-12-20T10:13:29;3.00;99.90
19220;DHT22;9744;49.364;7.484;2023-12-20T10:15:56;3.00;99.90
19220;DHT22;9744;49.364;7.484;2023-12-20T10:18:24;2.90;99.90
19220;DHT22;9744;49.364;7.484;2023-12-20T10:20:51;3.00;99.90
19220;DHT22;9744;49.364;7.484;2023-12-20T10:23:18;3.00;99.90
19220;DHT22;9744;49.364;7.484;2023-12-20T10:25:57;2.90;99.90
19220;DHT22;9744;49.364;7.484;2023-12-20T10:28:25;2.90;99.90
19220;DHT22;9744;49.364;7.484;2023-12-20T10:30:54;3.00;99.90
19220;DHT22;9744;49.364;7.484;2023-12-20T10:33:24;3.00;99.90
19220;DHT22;9744;49.364;7.484;2023-12-20T10:35:53;3.00;99.90
19220;DHT22;9744;49.364;7.484;2023-12-20T10:38:20;3.70;99.90
19220;DHT22;9744;49.364;7.484;2023-12-20T10:40:48;3.50;99.90
19220;DHT22;9744;49.364;7.484;2023-12-20T10:43:18;3.00;99.90
19220;DHT22;9744;49.364;7.484;2023-12-20T10:45:47;3.00;99.90
19220;DHT22;9744;49.364;7.484;2023-12-20T10:48:16;3.00;99.90
19220;DHT22;9744;49.364;7.484;2023-12-20T10:50:45;3.00;99.90
19220;DHT22;9744;49.364;7.484;2023-12-20T10:53:14;3.00;99.90
19220;DHT22;9744;49.364;7.484;2023-12-20T10:55:43;3.10;99.90
19220;DHT22;9744;49.364;7.484;2023-12-20T10:58:11;3.10;99.90
19220;DHT22;9744;49.364;7.484;2023-12-20T11:00:44;3.00;99.90
19220;DHT22;9744;49.364;7.484;2023-12-20T11:03:13;3.00;99.90
19220;DHT22;9744;49.364;7.484;2023-12-20T11:05:46;3.00;99.90
19220;DHT22;9744;49.364;7.484;2023-12-20T11:08:22;3.00;99.90
19220;DHT22;9744;49.364;7.484;2023-12-20T11:10:59;3.00;99.90
19220;DHT22;9744;49.364;7.484;2023-12-20T11:13:31;3.00;99.90
19220;DHT22;9744;49.364;7.484;2023-12-20T11:16:06;3.00;99.90
19220;DHT22;9744;49.364;7.484;2023-12-20T11:18:41;3.00;99.90
19220;DHT22;9744;49.364;7.484;2023-12-20T11:21:08;3.00;99.90
19220;DHT22;9744;49.364;7.484;2023-12-20T11:23:36;3.10;99.90
19220;DHT22;9744;49.364;7.484;2023-12-20T11:26:04;3.10;99.90
19220;DHT22;9744;49.364;7.484;2023-12-20T11:28:31;3.10;99.90
19220;DHT22;9744;49.364;7.484;2023-12-20T11:31:00;3.20;99.90
19220;DHT22;9744;49.364;7.484;2023-12-20T11:33:36;3.20;99.90
19220;DHT22;9744;49.364;7.484;2023-12-20T11:36:15;3.90;99.90
19220;DHT22;9744;49.364;7.484;2023-12-20T11:38:56;3.20;99.90
19220;DHT22;9744;49.364;7.484;2023-12-20T11:41:24;3.40;99.90
19220;DHT22;9744;49.364;7.484;2023-12-20T11:43:53;3.20;99.90
19220;DHT22;9744;49.364;7.484;2023-12-20T11:46:23;3.20;99.90
19220;DHT22;9744;49.364;7.484;2023-12-20T11:48:51;3.20;99.90
19220;DHT22;9744;49.364;7.484;2023-12-20T11:51:25;3.20;99.90
19220;DHT22;9744;49.364;7.484;2023-12-20T11:53:55;3.20;99.90
19220;DHT22;9744;49.364;7.484;2023-12-20T11:56:22;3.20;99.90
19220;DHT22;9744;49.364;7.484;2023-12-20T11:58:52;3.20;99.90
19220;DHT22;9744;49.364;7.484;2023-12-20T12:01:22;3.30;99.90
19220;DHT22;9744;49.364;7.484;2023-12-20T12:04:03;3.40;99.90
19220;DHT22;9744;49.364;7.484;2023-12-20T12:06:31;3.30;99.90
19220;DHT22;9744;49.364;7.484;2023-12-20T12:08:58;3.30;99.90
19220;DHT22;9744;49.364;7.484;2023-12-20T12:11:26;3.30;99.90
19220;DHT22;9744;49.364;7.484;2023-12-20T12:13:53;3.30;99.90
19220;DHT22;9744;49.364;7.484;2023-12-20T12:16:45;3.30;99.90
19220;DHT22;9744;49.364;7.484;2023-12-20T12:19:26;2.90;99.90
19220;DHT22;9744;49.364;7.484;2023-12-20T12:22:04;3.30;99.90
19220;DHT22;9744;49.364;7.484;2023-12-20T12:24:33;3.30;99.90
19220;DHT22;9744;49.364;7.484;2023-12-20T12:27:00;3.30;99.90
19220;DHT22;9744;49.364;7.484;2023-12-20T12:29:30;3.30;99.90
19220;DHT22;9744;49.364;7.484;2023-12-20T12:32:02;3.30;99.90
19220;DHT22;9744;49.364;7.484;2023-12-20T12:34:32;3.30;99.90
19220;DHT22;9744;49.364;7.484;2023-12-20T12:37:00;3.30;99.90
19220;DHT22;9744;49.364;7.484;2023-12-20T12:39:27;3.30;99.90
19220;DHT22;9744;49.364;7.484;2023-12-20T12:41:57;3.30;99.90
19220;DHT22;9744;49.364;7.484;2023-12-20T12:44:26;3.30;99.90
19220;DHT22;9744;49.364;7.484;2023-12-20T12:46:59;3.30;99.90
19220;DHT22;9744;49.364;7.484;2023-12-20T12:49:29;3.30;99.90
19220;DHT22;9744;49.364;7.484;2023-12-20T12:52:04;3.30;99.90
19220;DHT22;9744;49.364;7.484;2023-12-20T12:54:31;3.30;99.90
19220;DHT22;9744;49.364;7.484;2023-12-20T12:57:02;3.30;99.90
19220;DHT22;9744;49.364;7.484;2023-12-20T12:59:33;3.40;99.90
19220;DHT22;9744;49.364;7.484;2023-12-20T13:02:00;3.40;99.90
19220;DHT22;9744;49.364;7.484;2023-12-20T13:04:30;3.40;99.90
19220;DHT22;9744;49.364;7.484;2023-12-20T13:07:00;3.40;99.90
19220;DHT22;9744;49.364;7.484;2023-12-20T13:09:34;3.40;99.90
19220;DHT22;9744;49.364;7.484;2023-12-20T13:12:02;3.40;99.90
19220;DHT22;9744;49.364;7.484;2023-12-20T13:14:32;3.40;99.90
19220;DHT22;9744;49.364;7.484;2023-12-20T13:17:00;3.50;99.90
19220;DHT22;9744;49.364;7.484;2023-12-20T13:19:29;3.50;99.90
19220;DHT22;9744;49.364;7.484;2023-12-20T13:21:57;3.50;99.90
19220;DHT22;9744;49.364;7.484;2023-12-20T13:24:26;3.50;99.90
19220;DHT22;9744;49.364;7.484;2023-12-20T13:26:55;3.40;99.90
19220;DHT22;9744;49.364;7.484;2023-12-20T13:29:22;3.50;99.90
19220;DHT22;9744;49.364;7.484;2023-12-20T13:31:53;3.50;99.90
19220;DHT22;9744;49.364;7.484;2023-12-20T13:34:20;3.50;99.90
19220;DHT22;9744;49.364;7.484;2023-12-20T13:36:49;3.50;99.90
19220;DHT22;9744;49.364;7.484;2023-12-20T13:39:16;3.50;99.90
19220;DHT22;9744;49.364;7.484;2023-12-20T13:41:43;3.50;99.90
19220;DHT22;9744;49.364;7.484;2023-12-20T13:44:15;3.50;99.90
19220;DHT22;9744;49.364;7.484;2023-12-20T13:46:43;3.50;99.90
19220;DHT22;9744;49.364;7.484;2023-12-20T13:49:11;3.60;99.90
19220;DHT22;9744;49.364;7.484;2023-12-20T13:51:39;3.60;99.90
19220;DHT22;9744;49.364;7.484;2023-12-20T13:54:07;3.60;99.90
19220;DHT22;9744;49.364;7.484;2023-12-20T13:56:37;3.60;99.90
19220;DHT22;9744;49.364;7.484;2023-12-20T13:59:07;3.70;99.90
19220;DHT22;9744;49.364;7.484;2023-12-20T14:01:36;3.70;99.90
19220;DHT22;9744;49.364;7.484;2023-12-20T14:04:03;3.60;99.90
19220;DHT22;9744;49.364;7.484;2023-12-20T14:06:32;3.70;99.90
19220;DHT22;9744;49.364;7.484;2023-12-20T14:09:00;3.60;99.90
19220;DHT22;9744;49.364;7.484;2023-12-20T14:11:27;3.60;99.90
19220;DHT22;9744;49.364;7.484;2023-12-20T14:13:56;3.60;99.90
19220;DHT22;9744;49.364;7.484;2023-12-20T14:16:25;3.60;99.90
19220;DHT22;9744;49.364;7.484;2023-12-20T14:18:53;3.60;99.90
19220;DHT22;9744;49.364;7.484;2023-12-20T14:21:23;3.60;99.90
19220;DHT22;9744;49.364;7.484;2023-12-20T14:23:50;3.60;99.90
19220;DHT22;9744;49.364;7.484;2023-12-20T14:26:18;3.70;99.90
19220;DHT22;9744;49.364;7.484;2023-12-20T14:28:45;3.60;99.90
19220;DHT22;9744;49.364;7.484;2023-12-20T14:31:13;3.60;99.90
19220;DHT22;9744;49.364;7.484;2023-12-20T14:33:40;3.60;99.90
19220;DHT22;9744;49.364;7.484;2023-12-20T14:36:09;3.60;99.90
19220;DHT22;9744;49.364;7.484;2023-12-20T14:38:37;3.60;99.90
19220;DHT22;9744;49.364;7.484;2023-12-20T14:41:05;3.70;99.90
19220;DHT22;9744;49.364;7.484;2023-12-20T14:43:34;3.70;99.90
19220;DHT22;9744;49.364;7.484;2023-12-20T14:46:02;3.70;99.90
19220;DHT22;9744;49.364;7.484;2023-12-20T14:48:29;3.70;99.90
19220;DHT22;9744;49.364;7.484;2023-12-20T14:50:56;3.70;99.90
19220;DHT22;9744;49.364;7.484;2023-12-20T14:53:26;3.70;99.90
19220;DHT22;9744;49.364;7.484;2023-12-20T14:55:53;3.70;99.90
19220;DHT22;9744;49.364;7.484;2023-12-20T14:58:21;4.00;99.90
19220;DHT22;9744;49.364;7.484;2023-12-20T15:00:48;3.70;99.90
19220;DHT22;9744;49.364;7.484;2023-12-20T15:03:15;3.70;99.90
19220;DHT22;9744;49.364;7.484;2023-12-20T15:05:44;3.70;99.90
19220;DHT22;9744;49.364;7.484;2023-12-20T15:08:13;3.70;99.90
19220;DHT22;9744;49.364;7.484;2023-12-20T15:10:42;3.70;99.90
19220;DHT22;9744;49.364;7.484;2023-12-20T15:13:09;3.70;99.90
19220;DHT22;9744;49.364;7.484;2023-12-20T15:15:37;3.70;99.90
19220;DHT22;9744;49.364;7.484;2023-12-20T15:18:05;3.70;99.90
19220;DHT22;9744;49.364;7.484;2023-12-20T15:20:32;3.70;99.90
19220;DHT22;9744;49.364;7.484;2023-12-20T15:23:05;3.70;99.90
19220;DHT22;9744;49.364;7.484;2023-12-20T15:25:33;3.80;99.90
19220;DHT22;9744;49.364;7.484;2023-12-20T15:28:02;3.70;99.90
19220;DHT22;9744;49.364;7.484;2023-12-20T15:30:29;3.70;99.90
19220;DHT22;9744;49.364;7.484;2023-12-20T15:32:56;3.70;99.90
19220;DHT22;9744;49.364;7.484;2023-12-20T15:35:24;3.70;99.90
19220;DHT22;9744;49.364;7.484;2023-12-20T15:37:51;3.60;99.90
19220;DHT22;9744;49.364;7.484;2023-12-20T15:40:18;3.80;99.90
19220;DHT22;9744;49.364;7.484;2023-12-20T15:42:45;3.70;99.90
19220;DHT22;9744;49.364;7.484;2023-12-20T15:45:14;3.70;99.90
19220;DHT22;9744;49.364;7.484;2023-12-20T15:47:41;3.70;99.90
19220;DHT22;9744;49.364;7.484;2023-12-20T15:50:11;3.90;99.90
19220;DHT22;9744;49.364;7.484;2023-12-20T15:52:40;3.70;99.90
19220;DHT22;9744;49.364;7.484;2023-12-20T15:55:09;3.70;99.90
19220;DHT22;9744;49.364;7.484;2023-12-20T15:57:36;3.70;99.90
19220;DHT22;9744;49.364;7.484;2023-12-20T16:00:05;3.80;99.90
19220;DHT22;9744;49.364;7.484;2023-12-20T16:02:36;3.70;99.90
19220;DHT22;9744;49.364;7.484;2023-12-20T16:05:04;3.80;99.90
19220;DHT22;9744;49.364;7.484;2023-12-20T16:07:31;3.70;99.90
19220;DHT22;9744;49.364;7.484;2023-12-20T16:09:58;3.80;99.90